createdAt,value
2023-02-01T00:00:30.771Z,92.53
2023-02-01T00:01:30.757Z,92.22
2023-02-01T00:02:30.944Z,92.53
2023-02-01T00:03:30.768Z,92.74
2023-02-01T00:04:30.767Z,93.40
2023-02-01T00:05:30.720Z,93.71
2023-02-01T00:06:30.700Z,93.75
2023-02-01T00:07:30.681Z,94.06
2023-02-01T00:08:30.682Z,94.27
2023-02-01T00:09:30.720Z,94.48
2023-02-01T00:10:30.665Z,94.94
2023-02-01T00:11:30.656Z,94.94
2023-02-01T00:12:30.615Z,94.37
2023-02-01T00:13:30.634Z,94.17
2023-02-01T00:14:30.675Z,94.27
2023-02-01T00:15:30.576Z,94.63
2023-02-01T00:16:30.598Z,94.53
2023-02-01T00:17:30.562Z,94.06
2023-02-01T00:18:30.568Z,93.96
2023-02-01T00:19:30.555Z,93.96
2023-02-01T00:20:30.563Z,93.96
2023-02-01T00:21:30.523Z,94.17
2023-02-01T00:22:30.527Z,94.63
2023-02-01T00:23:30.503Z,95.04
2023-02-01T00:24:30.476Z,95.04
2023-02-01T00:25:30.520Z,94.84
2023-02-01T00:26:30.487Z,94.63
2023-02-01T00:27:30.453Z,94.17
2023-02-01T00:28:30.459Z,93.85
2023-02-01T00:29:30.429Z,93.85
2023-02-01T00:30:30.478Z,93.75
2023-02-01T00:31:30.485Z,93.44
2023-02-01T00:32:30.402Z,93.13
2023-02-01T00:33:30.373Z,93.23
2023-02-01T00:34:30.384Z,93.33
2023-02-01T00:35:30.409Z,93.54
2023-02-01T00:36:30.378Z,93.65
2023-02-01T00:37:30.348Z,93.44
2023-02-01T00:38:30.316Z,93.02
2023-02-01T00:39:30.332Z,93.13
2023-02-01T00:40:30.367Z,92.82
2023-02-01T00:41:30.281Z,92.72
2023-02-01T00:42:30.287Z,92.61
2023-02-01T00:43:30.278Z,92.82
2023-02-01T00:44:30.269Z,92.61
2023-02-01T00:45:30.270Z,92.61
2023-02-01T00:46:30.261Z,92.72
2023-02-01T00:47:30.235Z,92.82
2023-02-01T00:48:30.219Z,92.93
2023-02-01T00:49:30.222Z,92.30
2023-02-01T00:50:30.236Z,92.41
2023-02-01T00:51:30.214Z,92.86
2023-02-01T00:52:30.179Z,93.38
2023-02-01T00:53:30.162Z,93.28
2023-02-01T00:54:30.177Z,92.93
2023-02-01T00:55:30.174Z,93.07
2023-02-01T00:56:30.124Z,92.93
2023-02-01T00:57:30.125Z,93.02
2023-02-01T00:58:30.132Z,92.97
2023-02-01T00:59:30.123Z,93.28
2023-02-01T01:00:30.150Z,93.95
2023-02-01T01:01:30.083Z,94.46
2023-02-01T01:02:30.064Z,94.36
2023-02-01T01:03:30.049Z,94.57
2023-02-01T01:04:30.057Z,94.57
2023-02-01T01:05:30.059Z,94.67
2023-02-01T01:06:30.012Z,94.88
2023-02-01T01:07:30.021Z,94.78
2023-02-01T01:08:30.000Z,94.88
2023-02-01T01:09:29.971Z,95.19
2023-02-01T01:10:30.028Z,94.78
2023-02-01T01:11:29.964Z,94.67
2023-02-01T01:12:29.965Z,94.78
2023-02-01T01:13:29.924Z,94.42
2023-02-01T01:14:29.937Z,94.21
2023-02-01T01:15:29.939Z,94.21
2023-02-01T01:16:30.001Z,94.67
2023-02-01T01:17:29.893Z,94.57
2023-02-01T01:18:29.895Z,94.78
2023-02-01T01:19:29.877Z,94.88
2023-02-01T01:20:29.921Z,94.98
2023-02-01T01:21:29.857Z,94.88
2023-02-01T01:22:29.839Z,94.63
2023-02-01T01:23:29.838Z,94.11
2023-02-01T01:24:29.828Z,93.70
2023-02-01T01:25:29.853Z,93.90
2023-02-01T01:26:29.845Z,93.80
2023-02-01T01:27:29.773Z,93.90
2023-02-01T01:28:29.788Z,94.42
2023-02-01T01:29:29.769Z,94.46
2023-02-01T01:30:29.856Z,94.88
2023-02-01T01:31:29.876Z,95.29
2023-02-01T01:32:29.732Z,94.98
2023-02-01T01:33:29.721Z,94.63
2023-02-01T01:34:29.712Z,94.32
2023-02-01T01:35:29.733Z,94.11
2023-02-01T01:36:29.694Z,93.90
2023-02-01T01:37:29.692Z,94.32
2023-02-01T01:38:29.669Z,94.01
2023-02-01T01:39:29.648Z,94.11
2023-02-01T01:40:29.678Z,94.42
2023-02-01T01:41:29.669Z,93.80
2023-02-01T01:42:29.634Z,93.90
2023-02-01T01:43:29.605Z,93.90
2023-02-01T01:44:29.594Z,94.32
2023-02-01T01:45:29.639Z,94.21
2023-02-01T01:46:29.585Z,94.21
2023-02-01T01:47:29.549Z,94.42
2023-02-01T01:48:29.523Z,94.42
2023-02-01T01:49:29.544Z,94.32
2023-02-01T01:50:29.558Z,94.01
2023-02-01T01:51:29.508Z,93.65
2023-02-01T01:52:29.503Z,93.02
2023-02-01T01:53:29.495Z,92.72
2023-02-01T01:54:29.481Z,93.02
2023-02-01T01:55:29.506Z,92.93
2023-02-01T01:56:29.455Z,93.02
2023-02-01T01:57:29.459Z,93.13
2023-02-01T01:58:29.522Z,93.02
2023-02-01T01:59:29.438Z,92.93
2023-02-01T02:00:29.505Z,92.82
2023-02-01T02:01:29.415Z,92.72
2023-02-01T02:02:29.386Z,92.10
2023-02-01T02:03:29.385Z,92.20
2023-02-01T02:04:29.361Z,92.10
2023-02-01T02:05:29.388Z,92.30
2023-02-01T02:06:29.353Z,92.51
2023-02-01T02:07:29.346Z,92.51
2023-02-01T02:08:29.322Z,92.61
2023-02-01T02:09:29.316Z,92.82
2023-02-01T02:10:29.335Z,93.02
2023-02-01T02:11:29.285Z,93.28
2023-02-01T02:12:29.295Z,93.18
2023-02-01T02:13:29.254Z,93.13
2023-02-01T02:14:29.247Z,93.28
2023-02-01T02:15:29.293Z,93.49
2023-02-01T02:16:29.305Z,93.59
2023-02-01T02:17:29.231Z,93.38
2023-02-01T02:18:29.197Z,93.28
2023-02-01T02:19:29.184Z,93.18
2023-02-01T02:20:29.248Z,93.07
2023-02-01T02:21:29.184Z,93.38
2023-02-01T02:22:29.178Z,93.80
2023-02-01T02:23:29.164Z,93.70
2023-02-01T02:24:29.151Z,93.80
2023-02-01T02:25:29.143Z,93.59
2023-02-01T02:26:29.175Z,93.28
2023-02-01T02:27:29.132Z,93.38
2023-02-01T02:28:29.101Z,92.97
2023-02-01T02:29:29.088Z,92.72
2023-02-01T02:30:29.114Z,92.61
2023-02-01T02:31:29.181Z,92.51
2023-02-01T02:32:29.034Z,92.61
2023-02-01T02:33:29.055Z,92.51
2023-02-01T02:34:29.043Z,92.76
2023-02-01T02:35:29.023Z,93.07
2023-02-01T02:36:29.032Z,93.59
2023-02-01T02:37:29.003Z,93.59
2023-02-01T02:38:28.983Z,93.70
2023-02-01T02:39:28.982Z,93.70
2023-02-01T02:40:28.977Z,94.01
2023-02-01T02:41:28.991Z,93.70
2023-02-01T02:42:28.949Z,93.59
2023-02-01T02:43:28.961Z,93.59
2023-02-01T02:44:28.919Z,93.33
2023-02-01T02:45:28.987Z,93.23
2023-02-01T02:46:28.921Z,92.93
2023-02-01T02:47:28.888Z,92.72
2023-02-01T02:48:28.851Z,92.72
2023-02-01T02:49:28.866Z,92.82
2023-02-01T02:50:28.835Z,92.72
2023-02-01T02:51:28.874Z,92.82
2023-02-01T02:52:28.826Z,93.23
2023-02-01T02:53:28.831Z,93.28
2023-02-01T02:54:28.804Z,92.82
2023-02-01T02:55:28.811Z,92.72
2023-02-01T02:56:28.844Z,92.61
2023-02-01T02:57:28.787Z,92.93
2023-02-01T02:58:28.765Z,93.02
2023-02-01T02:59:28.756Z,93.02
2023-02-01T03:00:28.794Z,93.13
2023-02-01T03:01:28.850Z,92.93
2023-02-01T03:02:28.752Z,92.93
2023-02-01T03:03:28.717Z,92.82
2023-02-01T03:04:28.706Z,91.95
2023-02-01T03:05:28.687Z,91.64
2023-02-01T03:06:28.716Z,91.64
2023-02-01T03:07:28.660Z,91.74
2023-02-01T03:08:28.655Z,91.53
2023-02-01T03:09:28.639Z,91.53
2023-02-01T03:10:28.626Z,92.05
2023-02-01T03:11:28.658Z,91.95
2023-02-01T03:12:28.603Z,91.95
2023-02-01T03:13:28.601Z,92.05
2023-02-01T03:14:28.572Z,91.95
2023-02-01T03:15:28.581Z,91.39
2023-02-01T03:16:28.661Z,91.39
2023-02-01T03:17:28.552Z,91.49
2023-02-01T03:18:28.534Z,90.87
2023-02-01T03:19:28.503Z,91.18
2023-02-01T03:20:28.508Z,91.28
2023-02-01T03:21:28.538Z,91.64
2023-02-01T03:22:28.482Z,91.85
2023-02-01T03:23:28.493Z,91.64
2023-02-01T03:24:28.480Z,91.74
2023-02-01T03:25:28.463Z,91.64
2023-02-01T03:26:28.491Z,91.74
2023-02-01T03:27:28.452Z,91.74
2023-02-01T03:28:28.430Z,91.74
2023-02-01T03:29:28.419Z,91.43
2023-02-01T03:30:28.397Z,91.74
2023-02-01T03:31:28.454Z,91.33
2023-02-01T03:32:28.372Z,91.08
2023-02-01T03:33:28.387Z,91.12
2023-02-01T03:34:28.342Z,91.64
2023-02-01T03:35:28.346Z,91.85
2023-02-01T03:36:28.369Z,91.64
2023-02-01T03:37:28.331Z,91.22
2023-02-01T03:38:28.301Z,91.33
2023-02-01T03:39:28.307Z,91.64
2023-02-01T03:40:28.295Z,91.74
2023-02-01T03:41:28.311Z,91.43
2023-02-01T03:42:28.249Z,91.85
2023-02-01T03:43:28.273Z,91.18
2023-02-01T03:44:28.230Z,91.49
2023-02-01T03:45:28.247Z,91.08
2023-02-01T03:46:28.256Z,91.49
2023-02-01T03:47:28.199Z,91.28
2023-02-01T03:48:28.223Z,91.39
2023-02-01T03:49:28.190Z,91.08
2023-02-01T03:50:28.172Z,91.28
2023-02-01T03:51:28.180Z,92.11
2023-02-01T03:52:28.125Z,91.49
2023-02-01T03:53:28.137Z,91.39
2023-02-01T03:54:28.127Z,91.18
2023-02-01T03:55:28.132Z,90.87
2023-02-01T03:56:28.138Z,91.08
2023-02-01T03:57:28.104Z,91.08
2023-02-01T03:58:28.098Z,90.87
2023-02-01T03:59:28.063Z,90.87
2023-02-01T04:00:28.052Z,91.60
2023-02-01T04:01:28.130Z,92.11
2023-02-01T04:02:28.070Z,91.60
2023-02-01T04:03:28.037Z,92.43
2023-02-01T04:04:28.014Z,92.22
2023-02-01T04:05:28.010Z,92.01
2023-02-01T04:06:28.013Z,92.68
2023-02-01T04:07:28.026Z,91.70
2023-02-01T04:08:27.964Z,92.11
2023-02-01T04:09:27.950Z,91.39
2023-02-01T04:10:27.942Z,91.91
2023-02-01T04:11:27.963Z,91.91
2023-02-01T04:12:27.907Z,92.01
2023-02-01T04:13:27.934Z,91.70
2023-02-01T04:14:27.890Z,91.39
2023-02-01T04:15:27.883Z,91.08
2023-02-01T04:16:27.959Z,91.39
2023-02-01T04:17:27.856Z,91.28
2023-02-01T04:18:27.837Z,90.56
2023-02-01T04:19:27.844Z,90.56
2023-02-01T04:20:27.825Z,90.56
2023-02-01T04:21:27.860Z,91.18
2023-02-01T04:22:27.791Z,91.18
2023-02-01T04:23:27.769Z,91.28
2023-02-01T04:24:27.768Z,91.91
2023-02-01T04:25:27.766Z,91.49
2023-02-01T04:26:27.821Z,90.77
2023-02-01T04:27:29.572Z,91.60
2023-02-01T04:28:27.742Z,90.87
2023-02-01T04:29:27.804Z,91.28
2023-02-01T04:30:27.701Z,91.60
2023-02-01T04:31:27.794Z,90.87
2023-02-01T04:32:27.685Z,90.56
2023-02-01T04:33:27.663Z,91.18
2023-02-01T04:34:27.665Z,91.39
2023-02-01T04:35:27.666Z,91.28
2023-02-01T04:36:27.677Z,91.08
2023-02-01T04:37:27.619Z,90.97
2023-02-01T04:38:27.626Z,91.60
2023-02-01T04:39:27.593Z,90.77
2023-02-01T04:40:27.605Z,90.97
2023-02-01T04:41:27.618Z,90.66
2023-02-01T04:42:27.570Z,90.45
2023-02-01T04:43:27.533Z,90.87
2023-02-01T04:44:27.550Z,90.35
2023-02-01T04:45:27.536Z,90.35
2023-02-01T04:46:27.762Z,90.25
2023-02-01T04:47:27.525Z,90.77
2023-02-01T04:48:27.492Z,90.77
2023-02-01T04:49:27.480Z,91.08
2023-02-01T04:50:27.484Z,91.28
2023-02-01T04:51:27.501Z,90.77
2023-02-01T04:52:27.459Z,90.56
2023-02-01T04:53:27.430Z,91.28
2023-02-01T04:54:27.426Z,91.08
2023-02-01T04:55:27.408Z,90.87
2023-02-01T04:56:27.438Z,90.97
2023-02-01T04:57:27.417Z,90.97
2023-02-01T04:58:27.377Z,91.08
2023-02-01T04:59:27.372Z,91.60
2023-02-01T05:00:27.351Z,90.87
2023-02-01T05:01:27.379Z,90.97
2023-02-01T05:02:27.343Z,91.08
2023-02-01T05:03:27.320Z,90.87
2023-02-01T05:04:27.326Z,91.18
2023-02-01T05:05:27.289Z,91.08
2023-02-01T05:06:27.334Z,91.39
2023-02-01T05:07:27.273Z,91.91
2023-02-01T05:08:27.263Z,92.47
2023-02-01T05:09:27.250Z,92.16
2023-02-01T05:10:27.237Z,92.05
2023-02-01T05:11:27.272Z,92.47
2023-02-01T05:12:27.217Z,92.36
2023-02-01T05:13:27.202Z,92.26
2023-02-01T05:14:27.198Z,92.26
2023-02-01T05:15:27.223Z,92.88
2023-02-01T05:16:27.201Z,92.68
2023-02-01T05:17:27.151Z,92.22
2023-02-01T05:18:27.148Z,92.32
2023-02-01T05:19:27.140Z,92.63
2023-02-01T05:20:27.134Z,92.53
2023-02-01T05:21:27.188Z,92.63
2023-02-01T05:22:27.112Z,92.53
2023-02-01T05:23:27.106Z,92.11
2023-02-01T05:24:27.067Z,92.53
2023-02-01T05:25:27.062Z,92.22
2023-02-01T05:26:27.083Z,92.32
2023-02-01T05:27:27.059Z,92.32
2023-02-01T05:28:27.035Z,92.22
2023-02-01T05:29:27.023Z,92.53
2023-02-01T05:30:27.008Z,92.43
2023-02-01T05:31:27.163Z,92.74
2023-02-01T05:32:26.993Z,92.43
2023-02-01T05:33:26.978Z,92.22
2023-02-01T05:34:26.970Z,91.91
2023-02-01T05:35:26.966Z,91.91
2023-02-01T05:36:26.974Z,92.43
2023-02-01T05:37:26.919Z,92.32
2023-02-01T05:38:26.909Z,92.53
2023-02-01T05:39:26.919Z,92.53
2023-02-01T05:40:26.910Z,92.22
2023-02-01T05:41:26.921Z,92.01
2023-02-01T05:42:26.876Z,92.01
2023-02-01T05:43:26.845Z,92.32
2023-02-01T05:44:26.862Z,92.11
2023-02-01T05:45:26.838Z,92.11
2023-02-01T05:46:26.880Z,91.70
2023-02-01T05:47:26.826Z,92.01
2023-02-01T05:48:26.794Z,92.32
2023-02-01T05:49:26.793Z,92.01
2023-02-01T05:50:26.776Z,91.91
2023-02-01T05:51:26.803Z,91.60
2023-02-01T05:52:26.746Z,92.01
2023-02-01T05:53:26.743Z,92.32
2023-02-01T05:54:26.738Z,92.01
2023-02-01T05:55:26.694Z,92.11
2023-02-01T05:56:26.744Z,91.80
2023-02-01T05:57:26.680Z,92.11
2023-02-01T05:58:26.680Z,92.53
2023-02-01T05:59:26.685Z,92.11
2023-02-01T06:00:27.031Z,92.22
2023-02-01T06:01:26.665Z,92.74
2023-02-01T06:02:26.725Z,92.74
2023-02-01T06:03:26.640Z,92.74
2023-02-01T06:04:26.646Z,92.74
2023-02-01T06:05:26.601Z,92.84
2023-02-01T06:06:26.596Z,92.43
2023-02-01T06:07:29.315Z,93.25
2023-02-01T06:08:26.663Z,93.46
2023-02-01T06:09:26.554Z,93.46
2023-02-01T06:10:26.555Z,94.81
2023-02-01T06:11:33.576Z,95.22
2023-02-01T06:12:27.570Z,96.15
2023-02-01T06:13:26.523Z,96.88
2023-02-01T06:14:26.542Z,98.38
2023-02-01T06:15:26.483Z,98.27
2023-02-01T06:16:26.523Z,98.79
2023-02-01T06:17:26.535Z,99.21
2023-02-01T06:18:26.462Z,99.66
2023-02-01T06:19:26.488Z,99.98
2023-02-01T06:20:26.430Z,99.99
2023-02-01T06:21:26.419Z,99.99
2023-02-01T06:22:26.491Z,99.99
2023-02-01T06:23:26.404Z,99.99
2023-02-01T06:24:26.411Z,99.99
2023-02-01T06:25:26.377Z,99.99
2023-02-01T06:26:26.456Z,99.99
2023-02-01T06:27:26.379Z,99.99
2023-02-01T06:28:26.371Z,99.99
2023-02-01T06:29:26.327Z,99.99
2023-02-01T06:30:26.321Z,99.99
2023-02-01T06:31:26.491Z,99.99
2023-02-01T06:32:26.338Z,99.99
2023-02-01T06:33:26.297Z,99.99
2023-02-01T06:34:26.264Z,99.99
2023-02-01T06:35:26.251Z,99.99
2023-02-01T06:36:26.255Z,99.99
2023-02-01T06:37:26.294Z,99.99
2023-02-01T06:38:26.226Z,99.99
2023-02-01T06:39:26.211Z,99.99
2023-02-01T06:40:26.289Z,99.99
2023-02-01T06:41:29.030Z,99.99
2023-02-01T06:42:26.223Z,99.99
2023-02-01T06:43:26.174Z,99.99
2023-02-01T06:44:26.153Z,99.99
2023-02-01T06:45:26.150Z,99.99
2023-02-01T06:46:26.176Z,99.99
2023-02-01T06:47:26.170Z,99.99
2023-02-01T06:48:26.113Z,99.99
2023-02-01T06:49:26.109Z,99.99
2023-02-01T06:50:26.097Z,99.99
2023-02-01T06:51:26.092Z,99.99
2023-02-01T06:52:26.101Z,99.99
2023-02-01T06:53:26.052Z,99.99
2023-02-01T06:54:26.057Z,99.99
2023-02-01T06:55:26.027Z,99.99
2023-02-01T06:56:26.008Z,99.99
2023-02-01T06:57:26.020Z,99.99
2023-02-01T06:58:25.987Z,99.99
2023-02-01T06:59:25.988Z,99.99
2023-02-01T07:00:26.370Z,99.99
2023-02-01T07:01:25.960Z,99.99
2023-02-01T07:02:26.074Z,99.99
2023-02-01T07:03:25.954Z,99.99
2023-02-01T07:04:25.928Z,99.99
2023-02-01T07:05:25.915Z,99.99
2023-02-01T07:06:25.934Z,99.99
2023-02-01T07:07:25.936Z,99.99
2023-02-01T07:08:25.883Z,99.99
2023-02-01T07:09:25.860Z,99.99
2023-02-01T07:10:25.850Z,99.99
2023-02-01T07:11:25.850Z,99.99
2023-02-01T07:12:25.870Z,99.99
2023-02-01T07:13:25.839Z,99.99
2023-02-01T07:14:25.802Z,99.99
2023-02-01T07:15:25.791Z,99.99
2023-02-01T07:16:25.882Z,99.99
2023-02-01T07:17:25.805Z,99.99
2023-02-01T07:18:25.773Z,99.99
2023-02-01T07:19:25.759Z,99.99
2023-02-01T07:20:25.888Z,99.99
2023-02-01T07:21:25.727Z,99.98
2023-02-01T07:22:25.778Z,99.99
2023-02-01T07:23:25.719Z,99.99
2023-02-01T07:24:25.680Z,99.99
2023-02-01T07:25:25.683Z,99.99
2023-02-01T07:26:25.704Z,99.99
2023-02-01T07:27:25.654Z,99.99
2023-02-01T07:28:25.664Z,99.77
2023-02-01T07:29:25.635Z,99.15
2023-02-01T07:30:25.744Z,99.87
2023-02-01T07:31:25.613Z,99.99
2023-02-01T07:32:25.615Z,99.98
2023-02-01T07:33:28.026Z,99.77
2023-02-01T07:34:25.567Z,99.87
2023-02-01T07:35:25.545Z,99.99
2023-02-01T07:36:25.589Z,99.99
2023-02-01T07:37:25.550Z,99.99
2023-02-01T07:38:25.557Z,99.99
2023-02-01T07:39:25.537Z,99.99
2023-02-01T07:40:25.544Z,99.99
2023-02-01T07:41:25.530Z,99.99
2023-02-01T07:42:25.484Z,99.99
2023-02-01T07:43:25.535Z,99.99
2023-02-01T07:44:25.484Z,99.99
2023-02-01T07:45:25.460Z,99.99
2023-02-01T07:46:25.456Z,99.99
2023-02-01T07:47:25.430Z,99.99
2023-02-01T07:48:25.483Z,99.99
2023-02-01T07:49:25.419Z,99.99
2023-02-01T07:50:25.597Z,99.99
2023-02-01T07:51:25.372Z,99.99
2023-02-01T07:52:25.485Z,99.99
2023-02-01T07:53:25.399Z,99.99
2023-02-01T07:54:25.350Z,99.99
2023-02-01T07:55:25.324Z,99.99
2023-02-01T07:56:25.329Z,99.99
2023-02-01T07:57:25.291Z,99.99
2023-02-01T07:58:25.350Z,99.93
2023-02-01T07:59:25.288Z,98.85
2023-02-01T08:00:25.481Z,99.10
2023-02-01T08:01:25.624Z,99.21
2023-02-01T08:02:25.253Z,98.02
2023-02-01T08:03:25.279Z,98.33
2023-02-01T08:04:25.237Z,98.02
2023-02-01T08:05:25.232Z,98.38
2023-02-01T08:06:25.210Z,99.21
2023-02-01T08:07:25.228Z,99.99
2023-02-01T08:08:25.199Z,99.21
2023-02-01T08:09:25.204Z,97.86
2023-02-01T08:10:25.564Z,98.90
2023-02-01T08:11:25.156Z,99.52
2023-02-01T08:12:26.485Z,99.31
2023-02-01T08:13:25.116Z,99.10
2023-02-01T08:14:25.185Z,99.10
2023-02-01T08:15:25.151Z,99.00
2023-02-01T08:16:25.143Z,99.82
2023-02-01T08:17:25.099Z,99.99
2023-02-01T08:18:25.080Z,99.99
2023-02-01T08:19:25.104Z,99.72
2023-02-01T08:20:25.531Z,99.52
2023-02-01T08:21:25.059Z,99.37
2023-02-01T08:22:25.059Z,99.26
2023-02-01T08:23:25.000Z,98.64
2023-02-01T08:24:25.134Z,98.64
2023-02-01T08:25:24.996Z,99.37
2023-02-01T08:26:25.184Z,98.95
2023-02-01T08:27:24.948Z,98.80
2023-02-01T08:28:24.977Z,98.39
2023-02-01T08:29:24.994Z,98.70
2023-02-01T08:30:25.353Z,97.25
2023-02-01T08:31:24.986Z,97.56
2023-02-01T08:32:24.914Z,98.34
2023-02-01T08:33:24.917Z,97.77
2023-02-01T08:34:24.926Z,96.52
2023-02-01T08:35:37.914Z,97.25
2023-02-01T08:36:25.869Z,96.83
2023-02-01T08:37:24.882Z,97.45
2023-02-01T08:38:24.878Z,98.49
2023-02-01T08:39:24.873Z,97.77
2023-02-01T08:40:25.235Z,97.66
2023-02-01T08:41:24.822Z,99.32
2023-02-01T08:42:24.813Z,98.39
2023-02-01T08:43:24.789Z,98.39
2023-02-01T08:44:24.830Z,99.22
2023-02-01T08:45:24.831Z,98.70
2023-02-01T08:46:24.891Z,98.95
2023-02-01T08:47:24.754Z,98.85
2023-02-01T08:48:24.727Z,99.05
2023-02-01T08:49:24.752Z,99.47
2023-02-01T08:50:25.068Z,99.99
2023-02-01T08:51:24.728Z,99.99
2023-02-01T08:52:24.712Z,99.99
2023-02-01T08:53:24.668Z,99.99
2023-02-01T08:54:24.711Z,99.99
2023-02-01T08:55:24.635Z,99.99
2023-02-01T08:56:24.689Z,99.99
2023-02-01T08:57:24.637Z,99.99
2023-02-01T08:58:24.662Z,99.99
2023-02-01T08:59:26.710Z,99.99
2023-02-01T09:00:25.024Z,99.99
2023-02-01T09:01:24.723Z,99.99
2023-02-01T09:02:24.570Z,99.99
2023-02-01T09:03:24.558Z,99.99
2023-02-01T09:04:24.668Z,99.99
2023-02-01T09:05:24.555Z,99.99
2023-02-01T09:06:24.512Z,99.99
2023-02-01T09:07:24.506Z,99.99
2023-02-01T09:08:24.516Z,99.99
2023-02-01T09:09:24.507Z,99.99
2023-02-01T09:10:34.627Z,99.99
2023-02-01T09:11:25.487Z,99.99
2023-02-01T09:12:24.467Z,99.99
2023-02-01T09:13:24.478Z,99.99
2023-02-01T09:14:24.430Z,99.99
2023-02-01T09:15:24.465Z,99.99
2023-02-01T09:16:24.387Z,99.99
2023-02-01T09:17:24.407Z,99.99
2023-02-01T09:18:24.400Z,99.99
2023-02-01T09:19:26.652Z,99.99
2023-02-01T09:20:24.775Z,99.99
2023-02-01T09:21:24.367Z,99.99
2023-02-01T09:22:24.340Z,99.99
2023-02-01T09:23:24.330Z,99.99
2023-02-01T09:24:24.317Z,99.99
2023-02-01T09:25:24.471Z,99.99
2023-02-01T09:26:31.347Z,99.99
2023-02-01T09:27:26.010Z,99.99
2023-02-01T09:28:24.274Z,99.99
2023-02-01T09:29:24.287Z,99.99
2023-02-01T09:30:24.676Z,99.99
2023-02-01T09:31:24.400Z,99.99
2023-02-01T09:32:24.414Z,99.99
2023-02-01T09:33:24.212Z,99.99
2023-02-01T09:34:24.214Z,99.99
2023-02-01T09:35:24.223Z,99.99
2023-02-01T09:36:24.184Z,99.99
2023-02-01T09:37:24.173Z,99.99
2023-02-01T09:38:24.145Z,99.99
2023-02-01T09:39:24.177Z,99.99
2023-02-01T09:40:24.533Z,99.99
2023-02-01T09:41:24.130Z,99.99
2023-02-01T09:42:24.123Z,99.99
2023-02-01T09:43:24.103Z,99.99
2023-02-01T09:44:25.736Z,99.99
2023-02-01T09:45:24.147Z,99.99
2023-02-01T09:46:24.097Z,99.99
2023-02-01T09:47:24.052Z,99.99
2023-02-01T09:48:24.051Z,99.99
2023-02-01T09:49:24.027Z,99.99
2023-02-01T09:50:24.516Z,99.99
2023-02-01T09:51:24.025Z,99.99
2023-02-01T09:52:23.994Z,99.99
2023-02-01T09:53:23.977Z,99.99
2023-02-01T09:54:23.943Z,99.99
2023-02-01T09:55:24.001Z,99.99
2023-02-01T09:56:23.951Z,99.99
2023-02-01T09:57:23.940Z,99.99
2023-02-01T09:58:23.928Z,99.99
2023-02-01T09:59:23.921Z,99.99
2023-02-01T10:00:24.278Z,99.99
2023-02-01T10:01:23.939Z,99.99
2023-02-01T10:02:23.905Z,99.99
2023-02-01T10:03:23.960Z,99.99
2023-02-01T10:04:23.880Z,99.99
2023-02-01T10:05:23.894Z,99.99
2023-02-01T10:06:23.817Z,99.99
2023-02-01T10:07:23.829Z,99.99
2023-02-01T10:08:23.813Z,99.99
2023-02-01T10:09:23.813Z,99.99
2023-02-01T10:10:24.133Z,99.99
2023-02-01T10:11:23.770Z,99.99
2023-02-01T10:12:23.788Z,99.99
2023-02-01T10:13:23.736Z,99.99
2023-02-01T10:14:23.768Z,99.99
2023-02-01T10:15:23.948Z,99.99
2023-02-01T10:16:23.918Z,99.99
2023-02-01T10:17:23.697Z,99.99
2023-02-01T10:18:23.686Z,99.99
2023-02-01T10:19:23.683Z,99.99
2023-02-01T10:20:23.913Z,99.99
2023-02-01T10:21:23.699Z,99.99
2023-02-01T10:22:26.689Z,99.99
2023-02-01T10:23:34.007Z,99.99
2023-02-01T10:24:24.596Z,99.99
2023-02-01T10:25:23.706Z,99.99
2023-02-01T10:26:23.649Z,99.99
2023-02-01T10:27:23.581Z,99.99
2023-02-01T10:28:23.601Z,99.99
2023-02-01T10:29:23.573Z,99.99
2023-02-01T10:30:23.955Z,99.99
2023-02-01T10:31:23.658Z,99.99
2023-02-01T10:32:23.523Z,99.99
2023-02-01T10:33:23.523Z,99.99
2023-02-01T10:34:23.527Z,99.99
2023-02-01T10:35:23.535Z,99.99
2023-02-01T10:36:23.507Z,99.99
2023-02-01T10:37:23.487Z,99.99
2023-02-01T10:38:23.457Z,99.99
2023-02-01T10:39:23.451Z,99.99
2023-02-01T10:40:23.792Z,99.99
2023-02-01T10:41:23.417Z,99.99
2023-02-01T10:42:23.419Z,99.99
2023-02-01T10:43:23.417Z,99.99
2023-02-01T10:44:23.407Z,99.99
2023-02-01T10:45:23.444Z,99.99
2023-02-01T10:46:23.416Z,99.99
2023-02-01T10:47:23.375Z,99.99
2023-02-01T10:48:23.364Z,99.99
2023-02-01T10:49:23.366Z,99.99
2023-02-01T10:50:23.713Z,99.99
2023-02-01T10:51:23.321Z,99.99
2023-02-01T10:52:23.312Z,99.99
2023-02-01T10:53:23.302Z,99.99
2023-02-01T10:54:23.315Z,99.99
2023-02-01T10:55:23.308Z,99.99
2023-02-01T10:56:23.273Z,99.99
2023-02-01T10:57:23.265Z,99.99
2023-02-01T10:58:23.251Z,99.99
2023-02-01T10:59:23.234Z,99.99
2023-02-01T11:00:23.774Z,99.99
2023-02-01T11:01:23.251Z,99.99
2023-02-01T11:02:23.191Z,99.99
2023-02-01T11:03:23.223Z,99.99
2023-02-01T11:04:23.175Z,99.99
2023-02-01T11:05:23.247Z,99.99
2023-02-01T11:06:23.140Z,99.99
2023-02-01T11:07:23.162Z,99.99
2023-02-01T11:08:23.122Z,99.99
2023-02-01T11:09:23.106Z,99.99
2023-02-01T11:10:23.582Z,99.99
2023-02-01T11:11:23.105Z,99.99
2023-02-01T11:12:23.073Z,99.99
2023-02-01T11:13:23.080Z,99.99
2023-02-01T11:14:23.061Z,99.99
2023-02-01T11:15:23.510Z,99.99
2023-02-01T11:16:23.076Z,99.99
2023-02-01T11:17:23.073Z,99.99
2023-02-01T11:18:22.992Z,99.99
2023-02-01T11:19:22.987Z,99.99
2023-02-01T11:20:23.003Z,99.99
2023-02-01T11:21:22.985Z,99.99
2023-02-01T11:22:22.957Z,99.99
2023-02-01T11:23:22.955Z,99.99
2023-02-01T11:24:22.965Z,99.99
2023-02-01T11:25:23.416Z,99.99
2023-02-01T11:26:22.948Z,99.99
2023-02-01T11:27:27.461Z,99.99
2023-02-01T11:28:23.895Z,99.99
2023-02-01T11:29:22.905Z,99.99
2023-02-01T11:30:22.945Z,99.99
2023-02-01T11:31:22.887Z,99.99
2023-02-01T11:32:22.851Z,99.08
2023-02-01T11:33:22.837Z,97.08
2023-02-01T11:34:24.068Z,96.81
2023-02-01T11:35:23.177Z,96.28
2023-02-01T11:36:22.834Z,97.77
2023-02-01T11:37:22.804Z,98.02
2023-02-01T11:38:22.795Z,98.90
2023-02-01T11:39:22.791Z,99.00
2023-02-01T11:40:23.163Z,99.99
2023-02-01T11:41:22.781Z,99.56
2023-02-01T11:42:22.721Z,99.99
2023-02-01T11:43:22.717Z,99.99
2023-02-01T11:44:22.704Z,99.10
2023-02-01T11:45:22.745Z,99.21
2023-02-01T11:46:22.712Z,99.62
2023-02-01T11:47:22.682Z,99.82
2023-02-01T11:48:26.961Z,99.41
2023-02-01T11:49:22.657Z,99.52
2023-02-01T11:50:22.976Z,97.74
2023-02-01T11:51:22.661Z,94.68
2023-02-01T11:52:22.629Z,92.77
2023-02-01T11:53:22.620Z,91.64
2023-02-01T11:54:22.581Z,91.85
2023-02-01T11:55:22.578Z,92.65
2023-02-01T11:56:22.587Z,93.31
2023-02-01T11:57:22.565Z,92.99
2023-02-01T11:58:22.548Z,93.81
2023-02-01T11:59:22.532Z,93.91
2023-02-01T12:00:22.863Z,94.43
2023-02-01T12:01:22.548Z,94.32
2023-02-01T12:02:22.525Z,94.18
2023-02-01T12:03:22.573Z,93.37
2023-02-01T12:04:22.476Z,92.86
2023-02-01T12:05:22.486Z,91.83
2023-02-01T12:06:22.503Z,91.47
2023-02-01T12:07:22.471Z,90.49
2023-02-01T12:08:22.420Z,90.51
2023-02-01T12:09:22.430Z,88.45
2023-02-01T12:10:22.706Z,89.94
2023-02-01T12:11:22.434Z,89.87
2023-02-01T12:12:22.401Z,92.14
2023-02-01T12:13:22.378Z,91.53
2023-02-01T12:14:22.334Z,89.23
2023-02-01T12:15:22.349Z,88.92
2023-02-01T12:16:22.433Z,90.00
2023-02-01T12:17:22.303Z,88.98
2023-02-01T12:18:23.112Z,86.65
2023-02-01T12:19:22.292Z,85.17
2023-02-01T12:20:22.755Z,83.86
2023-02-01T12:21:22.300Z,84.08
2023-02-01T12:22:22.269Z,85.60
2023-02-01T12:23:22.279Z,86.56
2023-02-01T12:24:22.251Z,88.56
2023-02-01T12:25:22.241Z,88.80
2023-02-01T12:26:22.313Z,89.36
2023-02-01T12:27:22.261Z,91.25
2023-02-01T12:28:22.264Z,90.57
2023-02-01T12:29:22.180Z,92.94
2023-02-01T12:30:22.391Z,92.06
2023-02-01T12:31:22.207Z,92.21
2023-02-01T12:32:22.143Z,93.24
2023-02-01T12:33:22.152Z,94.06
2023-02-01T12:34:22.169Z,93.85
2023-02-01T12:35:22.125Z,93.85
2023-02-01T12:36:22.153Z,92.82
2023-02-01T12:37:22.095Z,93.96
2023-02-01T12:38:22.110Z,94.06
2023-02-01T12:39:22.069Z,93.24
2023-02-01T12:40:22.371Z,94.27
2023-02-01T12:41:22.070Z,93.49
2023-02-01T12:42:22.042Z,93.59
2023-02-01T12:43:22.017Z,92.35
2023-02-01T12:44:22.009Z,92.55
2023-02-01T12:45:22.042Z,92.97
2023-02-01T12:46:22.033Z,93.28
2023-02-01T12:47:21.968Z,94.00
2023-02-01T12:48:21.957Z,94.21
2023-02-01T12:49:21.973Z,93.69
2023-02-01T12:50:22.313Z,94.10
2023-02-01T12:51:21.971Z,93.12
2023-02-01T12:52:21.923Z,92.60